Time;durP1;ratioP1;P1;durP2;ratioP2;P2;SDS_P1;SDS_P2;PMS_P1;PMS_P2;Temp;Humidity;BMP_temperature;BMP_pressure;BME280_temperature;BME280_humidity;BME280_pressure;Samples;Min_cycle;Max_cycle;Signal;HPM_P1;HPM_P2
2021/11/03 00:00:48;;;;;;;7.93;4.40;;;6.00;99.90;;;;;;5053963;28;20076;-77
2021/11/03 00:03:16;;;;;;;5.93;3.50;;;6.00;99.90;;;;;;5053658;28;20526;-80
2021/11/03 00:05:46;;;;;;;6.43;4.10;;;5.90;99.90;;;;;;5053396;28;20153;-79
2021/11/03 00:08:13;;;;;;;6.60;4.25;;;5.90;99.90;;;;;;5053472;28;20037;-78
2021/11/03 00:10:43;;;;;;;7.28;4.85;;;5.80;99.90;;;;;;5053416;28;20124;-79
2021/11/03 00:13:14;;;;;;;6.35;4.30;;;5.80;99.90;;;;;;5055477;28;20073;-76
2021/11/03 00:15:42;;;;;;;6.43;3.97;;;5.80;99.90;;;;;;5038116;28;20124;-76
2021/11/03 00:18:10;;;;;;;5.03;3.40;;;5.80;99.90;;;;;;5053349;28;20091;-78
2021/11/03 00:20:37;;;;;;;4.80;3.30;;;5.70;99.90;;;;;;5054244;28;20553;-78
2021/11/03 00:23:06;;;;;;;5.50;4.07;;;5.70;99.90;;;;;;5068775;28;20434;-76
2021/11/03 00:25:37;;;;;;;7.00;4.45;;;5.70;99.90;;;;;;5054304;28;20139;-78
2021/11/03 00:28:04;;;;;;;6.97;4.85;;;5.70;99.90;;;;;;5033511;28;20081;-80
2021/11/03 00:30:34;;;;;;;7.78;5.03;;;5.70;99.90;;;;;;5033007;28;20140;-77
2021/11/03 00:33:01;;;;;;;6.97;4.70;;;5.50;99.90;;;;;;5051729;28;20156;-78
2021/11/03 00:35:29;;;;;;;6.97;4.78;;;5.50;99.90;;;;;;5053088;28;20136;-79
2021/11/03 00:37:56;;;;;;;7.95;5.10;;;5.40;99.90;;;;;;5032035;28;20053;-77
2021/11/03 00:40:23;;;;;;;6.88;4.60;;;5.40;99.90;;;;;;5048969;28;20135;-80
2021/11/03 00:42:50;;;;;;;5.95;3.80;;;5.40;99.90;;;;;;5053595;28;20044;-79
2021/11/03 00:45:19;;;;;;;6.75;3.80;;;5.40;99.90;;;;;;5052916;28;20049;-79
2021/11/03 00:47:48;;;;;;;6.80;3.92;;;5.40;99.90;;;;;;5052809;28;20449;-79
2021/11/03 00:50:16;;;;;;;5.82;3.30;;;5.50;99.90;;;;;;5052856;28;20140;-80
2021/11/03 00:52:43;;;;;;;6.30;3.80;;;5.60;99.90;;;;;;5052302;28;20128;-80
2021/11/03 00:55:10;;;;;;;5.40;3.45;;;5.70;99.90;;;;;;5052605;28;20128;-79
2021/11/03 00:57:37;;;;;;;5.35;3.53;;;5.70;99.90;;;;;;5053011;28;20131;-77
2021/11/03 01:00:07;;;;;;;5.72;3.25;;;5.70;99.90;;;;;;5053571;28;20107;-79
2021/11/03 01:02:35;;;;;;;5.63;3.85;;;5.80;99.90;;;;;;5052858;28;20132;-78
2021/11/03 01:05:06;;;;;;;6.22;3.53;;;5.90;99.90;;;;;;5053671;28;20128;-78
2021/11/03 01:07:33;;;;;;;6.15;3.97;;;5.90;99.90;;;;;;5053433;28;20136;-79
2021/11/03 01:10:00;;;;;;;6.03;3.80;;;6.00;99.90;;;;;;5051123;28;20633;-81
2021/11/03 01:12:27;;;;;;;6.97;4.28;;;6.00;99.90;;;;;;5051942;28;20131;-80
2021/11/03 01:14:54;;;;;;;7.30;4.47;;;6.00;99.90;;;;;;5052625;28;20140;-78
2021/11/03 01:17:21;;;;;;;6.28;4.13;;;6.00;99.90;;;;;;5052451;28;20127;-79
2021/11/03 01:19:48;;;;;;;7.57;4.70;;;6.00;99.90;;;;;;5052770;28;20136;-76
2021/11/03 01:22:17;;;;;;;6.45;4.35;;;5.90;99.90;;;;;;5051262;28;20126;-79
2021/11/03 01:24:45;;;;;;;6.68;4.35;;;5.80;99.90;;;;;;5052426;28;20132;-79
2021/11/03 01:27:12;;;;;;;10.68;4.93;;;5.80;99.90;;;;;;5052172;28;20127;-79
2021/11/03 01:29:39;;;;;;;6.88;4.50;;;5.70;99.90;;;;;;5052857;28;20139;-78
2021/11/03 01:32:07;;;;;;;8.35;4.90;;;5.70;99.90;;;;;;5054275;28;20140;-78
2021/11/03 01:34:35;;;;;;;8.48;5.32;;;5.70;99.90;;;;;;5053103;28;20131;-77
2021/11/03 01:37:02;;;;;;;7.88;5.10;;;5.70;99.90;;;;;;5054452;28;20080;-76
2021/11/03 01:39:31;;;;;;;9.75;5.40;;;5.60;99.90;;;;;;5052801;28;20137;-79
2021/11/03 01:41:58;;;;;;;9.70;6.00;;;5.60;99.90;;;;;;5053229;28;20442;-76
2021/11/03 01:44:25;;;;;;;8.38;5.57;;;5.60;99.90;;;;;;5054359;28;20170;-77
2021/11/03 01:46:56;;;;;;;8.00;5.38;;;5.60;99.90;;;;;;5052521;28;20124;-79
2021/11/03 01:49:27;;;;;;;7.68;4.93;;;5.60;99.90;;;;;;5052239;28;20081;-79
2021/11/03 01:51:59;;;;;;;8.00;5.18;;;5.60;99.90;;;;;;5053094;28;20045;-78
2021/11/03 01:54:31;;;;;;;9.00;5.40;;;5.60;99.90;;;;;;5054153;28;20470;-77
2021/11/03 01:57:00;;;;;;;9.10;5.70;;;5.60;99.90;;;;;;5052867;28;20133;-79
2021/11/03 01:59:31;;;;;;;8.02;5.25;;;5.60;99.90;;;;;;5052850;28;20045;-78
2021/11/03 02:01:59;;;;;;;8.18;5.20;;;5.60;99.90;;;;;;5033074;28;20161;-78
2021/11/03 02:04:26;;;;;;;8.40;4.78;;;5.60;99.90;;;;;;5031761;28;20144;-78
2021/11/03 02:06:56;;;;;;;6.82;4.63;;;5.60;99.90;;;;;;5041515;28;20463;-78
2021/11/03 02:09:23;;;;;;;7.47;5.10;;;5.70;99.90;;;;;;5051850;28;20134;-78
2021/11/03 02:11:51;;;;;;;7.70;4.78;;;5.70;99.90;;;;;;5052472;28;20127;-77
2021/11/03 02:14:19;;;;;;;6.88;4.43;;;5.80;99.90;;;;;;5052363;28;20148;-78
2021/11/03 02:16:52;;;;;;;7.85;4.88;;;5.80;99.90;;;;;;5052856;28;20148;-77
2021/11/03 02:19:24;;;;;;;7.22;4.32;;;5.90;99.90;;;;;;5051694;28;20052;-77
2021/11/03 02:22:03;;;;;;;7.78;4.78;;;5.90;99.90;;;;;;5051889;28;20140;-79
2021/11/03 02:24:40;;;;;;;9.18;4.75;;;6.00;99.90;;;;;;5051652;28;20566;-78
2021/11/03 02:27:09;;;;;;;7.13;4.72;;;6.00;99.90;;;;;;5051936;28;20137;-80
2021/11/03 02:29:36;;;;;;;7.82;4.80;;;6.10;99.90;;;;;;5051546;28;20088;-78
2021/11/03 02:32:17;;;;;;;8.13;5.10;;;6.10;99.90;;;;;;5051685;28;20128;-80
2021/11/03 02:34:46;;;;;;;8.10;4.70;;;6.20;99.90;;;;;;5051880;28;20108;-79
2021/11/03 02:37:43;;;;;;;8.02;4.68;;;6.20;99.90;;;;;;5051371;28;20133;-79
2021/11/03 02:40:42;;;;;;;7.22;4.47;;;6.20;99.90;;;;;;5051300;28;20080;-78
2021/11/03 02:43:24;;;;;;;6.95;4.97;;;6.30;99.90;;;;;;5051586;28;20127;-79
2021/11/03 02:45:55;;;;;;;9.27;5.30;;;6.30;99.90;;;;;;5051585;28;20138;-79
2021/11/03 02:48:24;;;;;;;6.88;4.40;;;6.30;99.90;;;;;;5051395;28;20140;-80
2021/11/03 02:51:04;;;;;;;7.85;4.85;;;6.30;99.90;;;;;;5051527;28;20139;-79
2021/11/03 02:53:36;;;;;;;7.47;4.82;;;6.20;99.90;;;;;;5051632;28;20131;-80
2021/11/03 02:56:04;;;;;;;6.68;4.70;;;6.20;99.90;;;;;;5052156;28;20170;-79
2021/11/03 02:58:34;;;;;;;6.85;4.32;;;6.10;99.90;;;;;;5071617;28;20044;-78
2021/11/03 03:01:15;;;;;;;8.27;4.88;;;6.10;99.90;;;;;;5071627;28;20135;-79
2021/11/03 03:03:45;;;;;;;8.23;5.15;;;6.00;99.90;;;;;;5071634;28;20135;-79
2021/11/03 03:06:19;;;;;;;8.63;4.97;;;6.00;99.90;;;;;;5069193;28;20045;-77
2021/11/03 03:08:47;;;;;;;6.82;4.30;;;5.90;99.90;;;;;;5051500;28;20159;-78
2021/11/03 03:11:14;;;;;;;6.95;4.07;;;5.90;99.90;;;;;;5051206;28;20053;-77
2021/11/03 03:13:43;;;;;;;6.22;4.13;;;6.00;99.90;;;;;;5051263;28;20045;-80
2021/11/03 03:16:10;;;;;;;7.30;4.22;;;5.90;99.90;;;;;;5054473;28;20149;-79
2021/11/03 03:18:37;;;;;;;6.88;4.50;;;6.00;99.90;;;;;;5054791;28;20140;-77
2021/11/03 03:21:05;;;;;;;6.57;4.53;;;6.00;99.90;;;;;;5055664;28;20048;-79
2021/11/03 03:23:32;;;;;;;7.70;4.75;;;6.10;99.90;;;;;;5054686;28;20041;-80
2021/11/03 03:26:03;;;;;;;6.93;4.57;;;6.10;99.90;;;;;;5054695;28;20132;-77
2021/11/03 03:28:30;;;;;;;7.15;4.53;;;6.10;99.90;;;;;;5054781;28;20053;-78
2021/11/03 03:30:59;;;;;;;7.72;4.55;;;6.20;99.90;;;;;;5054604;28;20475;-77
2021/11/03 03:33:27;;;;;;;6.80;4.38;;;6.20;99.90;;;;;;5050157;28;20132;-78
2021/11/03 03:35:54;;;;;;;7.05;4.53;;;6.30;99.90;;;;;;5036943;28;20128;-78
2021/11/03 03:38:21;;;;;;;7.82;4.55;;;6.30;99.90;;;;;;5054674;28;20143;-78
2021/11/03 03:40:48;;;;;;;7.38;4.53;;;6.30;99.90;;;;;;5054542;28;20140;-76
2021/11/03 03:43:15;;;;;;;8.00;4.88;;;6.30;99.90;;;;;;5054805;28;20128;-78
2021/11/03 03:45:43;;;;;;;7.82;4.88;;;6.30;99.90;;;;;;5054290;28;20096;-79
2021/11/03 03:48:12;;;;;;;7.32;4.90;;;6.30;99.90;;;;;;5034662;28;20125;-77
2021/11/03 03:50:39;;;;;;;9.38;4.88;;;6.30;99.90;;;;;;5034752;28;20133;-79
2021/11/03 03:53:10;;;;;;;7.97;5.35;;;6.20;99.90;;;;;;5034426;28;20132;-79
2021/11/03 03:55:38;;;;;;;6.43;4.50;;;6.10;99.90;;;;;;5034487;28;20811;-80
2021/11/03 03:58:05;;;;;;;6.45;4.20;;;6.10;99.90;;;;;;5052695;28;20423;-77
2021/11/03 04:00:32;;;;;;;6.80;4.28;;;6.10;99.90;;;;;;5053995;28;20479;-81
2021/11/03 04:03:01;;;;;;;6.75;4.45;;;6.10;99.90;;;;;;5051758;28;20162;-77
2021/11/03 04:05:29;;;;;;;7.97;4.47;;;6.10;99.90;;;;;;5051628;28;20081;-77
2021/11/03 04:07:57;;;;;;;7.53;4.65;;;6.20;99.90;;;;;;5049833;28;20059;-78
2021/11/03 04:10:24;;;;;;;6.65;4.10;;;6.10;99.90;;;;;;5050712;28;20049;-79
2021/11/03 04:12:51;;;;;;;6.95;4.57;;;6.10;99.90;;;;;;5050476;28;20144;-79
2021/11/03 04:15:19;;;;;;;10.10;4.70;;;6.10;99.90;;;;;;5037766;28;20479;-78
2021/11/03 04:17:46;;;;;;;8.73;5.20;;;6.00;99.90;;;;;;5046837;28;20156;-79
2021/11/03 04:20:15;;;;;;;6.53;4.20;;;6.00;99.90;;;;;;5050263;28;20156;-79
2021/11/03 04:22:45;;;;;;;8.82;4.57;;;6.00;99.90;;;;;;5050276;28;20076;-77
2021/11/03 04:25:13;;;;;;;8.00;4.50;;;6.00;99.90;;;;;;5050254;28;20120;-79
2021/11/03 04:27:41;;;;;;;8.85;4.60;;;6.00;99.90;;;;;;5048638;28;20049;-77
2021/11/03 04:30:10;;;;;;;6.18;3.85;;;6.00;99.90;;;;;;5049570;28;20136;-77
2021/11/03 04:32:38;;;;;;;6.32;4.07;;;6.00;99.90;;;;;;5050145;28;20144;-77
2021/11/03 04:35:07;;;;;;;6.28;3.40;;;6.00;99.90;;;;;;5050235;28;20159;-79
2021/11/03 04:37:34;;;;;;;6.40;3.47;;;6.10;99.90;;;;;;5050156;28;20083;-77
2021/11/03 04:40:04;;;;;;;6.30;3.30;;;6.10;99.90;;;;;;5050295;28;20135;-76
2021/11/03 04:42:31;;;;;;;6.03;3.72;;;6.20;99.90;;;;;;5050161;28;20052;-80
2021/11/03 04:44:58;;;;;;;5.75;3.92;;;6.20;99.90;;;;;;5050035;28;20136;-80
2021/11/03 04:47:25;;;;;;;5.82;3.55;;;6.30;99.90;;;;;;5049424;28;20135;-78
2021/11/03 04:49:52;;;;;;;6.53;3.55;;;6.30;99.90;;;;;;5049908;28;20131;-79
2021/11/03 04:52:19;;;;;;;5.70;3.20;;;6.40;99.90;;;;;;5050228;28;20127;-79
2021/11/03 04:54:47;;;;;;;5.70;3.20;;;6.40;99.90;;;;;;5049694;28;20577;-80
2021/11/03 04:57:19;;;;;;;5.80;3.67;;;6.50;99.90;;;;;;5049459;28;20148;-79
2021/11/03 04:59:47;;;;;;;6.38;3.60;;;6.50;99.90;;;;;;5049825;28;20118;-78
2021/11/03 05:02:15;;;;;;;5.43;3.42;;;6.60;99.90;;;;;;5037901;28;20056;-78
2021/11/03 05:04:43;;;;;;;5.30;3.38;;;6.60;99.90;;;;;;5045099;28;20549;-80
2021/11/03 05:07:13;;;;;;;6.72;3.80;;;6.60;99.90;;;;;;5053010;28;20132;-81
2021/11/03 05:09:40;;;;;;;5.93;3.90;;;6.60;99.90;;;;;;5053196;28;20844;-80
2021/11/03 05:12:08;;;;;;;5.30;3.30;;;6.60;99.90;;;;;;5052704;28;20136;-79
2021/11/03 05:14:37;;;;;;;5.50;3.75;;;6.60;99.90;;;;;;5053099;28;20476;-76
2021/11/03 05:17:05;;;;;;;5.00;3.13;;;6.60;99.90;;;;;;5052193;28;20439;-81
2021/11/03 05:19:33;;;;;;;4.80;3.05;;;6.60;99.90;;;;;;5053304;28;20139;-81
2021/11/03 05:22:10;;;;;;;5.85;3.45;;;6.70;99.90;;;;;;5048230;28;20144;-77
2021/11/03 05:24:38;;;;;;;5.20;3.15;;;6.70;99.90;;;;;;5050981;28;20070;-77
2021/11/03 05:27:06;;;;;;;5.20;3.55;;;6.80;99.90;;;;;;5062328;28;20132;-80
2021/11/03 05:29:33;;;;;;;6.00;3.55;;;6.80;99.90;;;;;;5061144;28;20470;-79
2021/11/03 05:32:01;;;;;;;5.63;3.40;;;6.80;99.90;;;;;;5072934;28;20135;-78
2021/11/03 05:34:28;;;;;;;5.63;3.70;;;6.80;99.90;;;;;;5073048;28;20086;-78
2021/11/03 05:36:55;;;;;;;6.00;3.40;;;6.80;99.90;;;;;;5072784;28;20128;-80
2021/11/03 05:39:23;;;;;;;6.30;3.72;;;6.80;99.90;;;;;;5072390;28;20135;-77
2021/11/03 05:41:50;;;;;;;5.97;3.70;;;6.80;99.90;;;;;;5072119;28;20131;-77
2021/11/03 05:44:19;;;;;;;6.13;3.88;;;6.80;99.90;;;;;;5072616;28;20052;-78
2021/11/03 05:46:50;;;;;;;5.40;3.20;;;6.80;99.90;;;;;;5072696;28;20128;-79
2021/11/03 05:49:21;;;;;;;5.32;3.50;;;6.90;99.90;;;;;;5072508;28;20127;-78
2021/11/03 05:51:49;;;;;;;5.43;3.30;;;6.90;99.90;;;;;;5072393;28;20135;-80
2021/11/03 05:54:18;;;;;;;7.32;4.30;;;6.90;99.90;;;;;;5072247;28;20576;-78
2021/11/03 05:56:46;;;;;;;6.57;3.95;;;6.90;99.90;;;;;;5071884;28;20051;-78
2021/11/03 05:59:14;;;;;;;5.90;3.42;;;6.80;99.90;;;;;;5087652;28;20044;-79
2021/11/03 06:01:41;;;;;;;6.10;3.50;;;6.70;99.90;;;;;;5071857;28;20495;-77
2021/11/03 06:04:08;;;;;;;5.38;3.58;;;6.70;99.90;;;;;;5071959;28;20131;-79
2021/11/03 06:06:37;;;;;;;5.05;3.10;;;6.70;99.90;;;;;;5072461;28;20075;-76
2021/11/03 06:09:07;;;;;;;4.78;3.00;;;6.70;99.90;;;;;;5072119;28;20087;-79
2021/11/03 06:11:36;;;;;;;6.72;4.35;;;6.80;99.90;;;;;;5071865;28;20052;-77
2021/11/03 06:14:04;;;;;;;6.70;4.20;;;6.70;99.90;;;;;;5071751;28;20052;-77
2021/11/03 06:16:31;;;;;;;5.80;4.05;;;6.60;99.90;;;;;;5071885;28;20131;-78
2021/11/03 06:18:58;;;;;;;6.00;4.10;;;6.60;99.90;;;;;;5071812;28;20140;-78
2021/11/03 06:21:25;;;;;;;7.20;4.05;;;6.50;99.90;;;;;;5071600;28;20059;-77
2021/11/03 06:23:54;;;;;;;6.80;4.40;;;6.40;99.90;;;;;;5071825;28;20124;-78
2021/11/03 06:26:23;;;;;;;7.50;4.65;;;6.40;99.90;;;;;;5074731;28;20094;-76
2021/11/03 06:28:51;;;;;;;7.57;4.82;;;6.40;99.90;;;;;;5071453;28;20131;-78
2021/11/03 06:31:19;;;;;;;7.72;4.50;;;6.30;99.90;;;;;;5071709;28;20049;-77
2021/11/03 06:33:46;;;;;;;6.88;4.28;;;6.30;99.90;;;;;;5071700;28;20148;-78
2021/11/03 06:36:16;;;;;;;6.93;4.00;;;6.30;99.90;;;;;;5071994;28;20152;-78
2021/11/03 06:38:43;;;;;;;6.90;4.47;;;6.20;99.90;;;;;;5071661;28;20076;-79
2021/11/03 06:41:17;;;;;;;6.75;4.30;;;6.20;99.90;;;;;;5071824;28;20136;-77
2021/11/03 06:43:44;;;;;;;9.02;4.50;;;6.20;99.90;;;;;;5071498;28;20384;-78
2021/11/03 06:46:12;;;;;;;7.70;4.07;;;6.20;99.90;;;;;;5071523;28;20719;-77
2021/11/03 06:48:39;;;;;;;6.57;3.80;;;6.20;99.90;;;;;;5071721;28;20218;-78
2021/11/03 06:51:07;;;;;;;5.22;3.38;;;6.20;99.90;;;;;;5075090;28;20052;-80
2021/11/03 06:53:34;;;;;;;6.57;3.78;;;6.30;99.90;;;;;;5075489;28;20135;-79
2021/11/03 06:56:02;;;;;;;6.15;3.65;;;6.40;99.90;;;;;;5075500;28;20155;-78
2021/11/03 06:58:32;;;;;;;5.45;3.63;;;6.40;99.90;;;;;;5075209;28;20140;-78
2021/11/03 07:01:00;;;;;;;6.63;4.20;;;6.50;99.90;;;;;;5075110;28;20075;-78
2021/11/03 07:03:31;;;;;;;6.57;4.20;;;6.60;99.90;;;;;;5075308;28;20124;-78
2021/11/03 07:05:58;;;;;;;6.95;3.85;;;6.60;99.90;;;;;;5075041;28;20105;-80
2021/11/03 07:08:26;;;;;;;6.88;4.10;;;6.70;99.90;;;;;;5075047;28;20140;-80
2021/11/03 07:10:57;;;;;;;7.35;4.43;;;6.80;99.90;;;;;;5074813;28;20135;-78
2021/11/03 07:13:26;;;;;;;6.95;3.90;;;6.70;99.90;;;;;;5074712;28;20045;-78
2021/11/03 07:15:56;;;;;;;8.82;4.22;;;6.80;99.90;;;;;;5064253;28;20132;-77
2021/11/03 07:18:24;;;;;;;8.27;4.55;;;6.80;99.90;;;;;;5035144;28;20136;-80
2021/11/03 07:20:52;;;;;;;7.05;4.25;;;6.80;99.90;;;;;;5034855;28;20562;-80
2021/11/03 07:23:25;;;;;;;8.43;4.63;;;6.90;99.90;;;;;;5034907;28;20850;-79
2021/11/03 07:25:53;;;;;;;7.75;4.28;;;6.90;99.90;;;;;;5034700;28;20049;-78
2021/11/03 07:28:20;;;;;;;6.38;4.10;;;7.00;99.90;;;;;;5034062;28;20141;-80
2021/11/03 07:30:47;;;;;;;6.53;3.85;;;7.00;99.90;;;;;;5034943;28;20054;-78
2021/11/03 07:33:16;;;;;;;6.18;3.70;;;7.10;99.90;;;;;;5034524;28;20128;-80
2021/11/03 07:35:44;;;;;;;6.35;3.88;;;7.10;99.90;;;;;;5034579;28;20136;-79
2021/11/03 07:38:13;;;;;;;6.63;4.07;;;7.20;99.90;;;;;;5034588;28;20124;-79
2021/11/03 07:40:44;;;;;;;5.80;3.67;;;7.20;99.90;;;;;;5034434;28;20136;-79
2021/11/03 07:43:14;;;;;;;6.28;3.90;;;7.20;99.90;;;;;;5034583;28;20120;-78
2021/11/03 07:45:43;;;;;;;6.40;3.95;;;7.20;99.90;;;;;;5034746;28;20454;-78
2021/11/03 07:48:11;;;;;;;6.70;3.88;;;7.30;99.90;;;;;;5034404;28;20586;-79
2021/11/03 07:50:44;;;;;;;5.95;3.72;;;7.30;99.90;;;;;;5034386;28;20069;-77
2021/11/03 07:53:13;;;;;;;6.63;4.20;;;7.30;99.90;;;;;;5034546;28;20056;-78
2021/11/03 07:55:42;;;;;;;7.60;4.32;;;7.40;99.90;;;;;;5034557;28;20045;-80
2021/11/03 07:58:14;;;;;;;6.93;4.53;;;7.40;99.90;;;;;;5034266;28;20132;-79
2021/11/03 08:00:42;;;;;;;7.75;4.45;;;7.50;99.90;;;;;;5034643;28;20061;-76
2021/11/03 08:03:09;;;;;;;6.70;4.07;;;7.50;99.90;;;;;;5034550;28;20136;-78
2021/11/03 08:05:38;;;;;;;8.10;4.53;;;7.50;99.90;;;;;;5034684;28;20145;-75
2021/11/03 08:08:11;;;;;;;7.75;4.45;;;7.60;99.90;;;;;;5034828;28;20069;-78
2021/11/03 08:10:42;;;;;;;6.22;4.20;;;7.60;99.90;;;;;;5034436;28;20132;-75
2021/11/03 08:13:13;;;;;;;7.75;4.55;;;7.60;99.90;;;;;;5038565;28;20052;-75
2021/11/03 08:15:42;;;;;;;6.97;3.88;;;7.60;99.90;;;;;;5035848;28;20056;-79
2021/11/03 08:18:12;;;;;;;8.73;4.70;;;7.70;99.90;;;;;;5034271;28;20385;-78
2021/11/03 08:20:41;;;;;;;6.80;4.40;;;7.70;99.90;;;;;;5033836;28;20041;-80
2021/11/03 08:23:10;;;;;;;7.43;4.63;;;7.70;99.90;;;;;;5034327;28;20069;-78
2021/11/03 08:25:38;;;;;;;9.30;4.90;;;7.70;99.90;;;;;;5033949;28;20080;-76
2021/11/03 08:28:06;;;;;;;9.48;5.32;;;7.70;99.90;;;;;;5033744;28;20072;-77
2021/11/03 08:30:34;;;;;;;9.00;5.18;;;7.70;99.90;;;;;;5033220;28;20109;-79
2021/11/03 08:33:06;;;;;;;7.68;4.70;;;7.80;99.90;;;;;;5033534;28;20578;-79
2021/11/03 08:35:35;;;;;;;9.88;4.93;;;7.80;99.90;;;;;;5033672;28;20140;-78
2021/11/03 08:38:08;;;;;;;8.25;4.50;;;7.80;99.90;;;;;;5033640;28;20136;-79
2021/11/03 08:40:37;;;;;;;7.60;4.35;;;7.90;99.90;;;;;;5033432;28;20133;-80
2021/11/03 08:43:07;;;;;;;8.65;4.32;;;7.90;99.90;;;;;;5033345;28;20140;-78
2021/11/03 08:45:35;;;;;;;9.13;5.13;;;8.00;99.90;;;;;;5045254;28;20053;-80
2021/11/03 08:48:02;;;;;;;9.13;5.07;;;8.00;99.90;;;;;;5052830;28;20045;-80
2021/11/03 08:50:36;;;;;;;8.85;4.90;;;8.10;99.90;;;;;;5053008;28;20091;-80
2021/11/03 08:53:05;;;;;;;11.23;5.27;;;8.10;99.90;;;;;;5053138;28;20179;-80
2021/11/03 08:55:32;;;;;;;7.65;4.68;;;8.10;99.90;;;;;;5053211;28;20084;-78
2021/11/03 08:58:02;;;;;;;7.72;4.68;;;8.10;99.90;;;;;;5053693;28;20120;-79
2021/11/03 09:00:34;;;;;;;7.90;5.50;;;8.10;99.90;;;;;;5052938;28;20135;-77
2021/11/03 09:03:02;;;;;;;10.25;5.53;;;8.00;99.90;;;;;;5052982;28;20135;-79
2021/11/03 09:05:30;;;;;;;8.40;4.90;;;8.00;99.90;;;;;;5052856;28;20593;-81
2021/11/03 09:07:59;;;;;;;9.35;5.28;;;8.00;99.90;;;;;;5052709;28;20087;-78
2021/11/03 09:10:30;;;;;;;9.15;4.90;;;8.00;99.90;;;;;;5052839;28;20558;-77
2021/11/03 09:12:57;;;;;;;8.73;5.05;;;8.10;99.90;;;;;;5052424;28;20117;-80
2021/11/03 09:15:24;;;;;;;7.93;5.53;;;8.10;99.90;;;;;;5052745;28;20065;-79
2021/11/03 09:17:52;;;;;;;7.50;4.72;;;8.20;99.90;;;;;;5052575;28;20123;-80
2021/11/03 09:20:21;;;;;;;8.10;4.70;;;8.20;99.90;;;;;;5052429;28;20136;-78
2021/11/03 09:22:48;;;;;;;10.63;5.28;;;8.30;99.90;;;;;;5052750;28;20095;-78
2021/11/03 09:25:20;;;;;;;8.65;5.30;;;8.40;99.90;;;;;;5052581;28;20144;-80
2021/11/03 09:27:48;;;;;;;9.60;5.25;;;8.40;99.90;;;;;;5052494;28;20141;-78
2021/11/03 09:30:20;;;;;;;8.68;4.88;;;8.40;99.90;;;;;;5052649;28;20567;-78
2021/11/03 09:32:54;;;;;;;8.23;4.88;;;8.50;99.90;;;;;;5053041;28;20143;-79
2021/11/03 09:35:22;;;;;;;10.23;4.88;;;8.50;99.90;;;;;;5052831;28;20138;-78
2021/11/03 09:37:50;;;;;;;8.15;4.40;;;8.50;99.90;;;;;;5052431;28;20563;-82
2021/11/03 09:40:25;;;;;;;7.93;4.68;;;8.50;99.90;;;;;;5053221;28;20454;-78
2021/11/03 09:42:55;;;;;;;;;;;8.60;99.90;;;;;;5053206;28;20486;-78
2021/11/03 09:45:27;;;;;;;8.45;4.57;;;8.60;99.90;;;;;;5052574;28;19920;-76
2021/11/03 09:48:06;;;;;;;7.80;5.40;;;8.60;99.90;;;;;;5053004;28;20208;-75
2021/11/03 09:50:38;;;;;;;9.15;4.80;;;8.60;99.90;;;;;;5054081;28;20128;-76
2021/11/03 09:53:25;;;;;;;9.70;5.05;;;8.60;99.90;;;;;;5053875;28;20481;-79
2021/11/03 09:55:53;;;;;;;7.43;4.75;;;8.60;99.90;;;;;;5053083;28;20136;-75
2021/11/03 09:58:44;;;;;;;8.02;4.53;;;8.60;99.90;;;;;;5052890;28;20092;-79
2021/11/03 10:01:24;;;;;;;6.80;3.95;;;8.60;99.90;;;;;;5053402;28;20387;-77
2021/11/03 10:04:11;;;;;;;7.43;4.03;;;8.60;99.90;;;;;;5054755;28;20077;-77
2021/11/03 10:06:52;;;;;;;6.78;4.07;;;8.70;99.90;;;;;;5052261;28;20049;-75
2021/11/03 10:09:19;;;;;;;6.22;3.63;;;8.70;99.90;;;;;;5050167;28;20132;-77
2021/11/03 10:11:49;;;;;;;6.30;3.55;;;8.80;99.90;;;;;;5050694;28;20083;-78
2021/11/03 10:14:18;;;;;;;6.20;3.95;;;8.90;99.90;;;;;;5050382;28;20135;-77
2021/11/03 10:16:49;;;;;;;7.88;4.10;;;8.90;99.90;;;;;;5050626;28;20139;-76
2021/11/03 10:19:31;;;;;;;6.50;3.80;;;9.00;99.90;;;;;;5051506;28;20141;-79
2021/11/03 10:22:02;;;;;;;8.32;3.58;;;9.00;99.90;;;;;;5051737;28;20139;-80
2021/11/03 10:24:41;;;;;;;6.78;3.60;;;9.00;99.90;;;;;;5052750;28;20049;-79
2021/11/03 10:27:21;;;;;;;6.22;3.63;;;9.10;99.90;;;;;;5055861;28;20049;-79
2021/11/03 10:29:52;;;;;;;5.47;3.42;;;9.10;99.90;;;;;;5054720;28;20554;-79
2021/11/03 10:32:28;;;;;;;6.75;3.80;;;9.20;99.90;;;;;;5051693;28;20063;-79
2021/11/03 10:35:18;;;;;;;5.75;3.33;;;9.20;99.90;;;;;;5052436;28;20477;-79
2021/11/03 10:37:50;;;;;;;6.75;3.63;;;9.20;99.90;;;;;;5052361;28;20052;-78
2021/11/03 10:40:27;;;;;;;6.70;3.47;;;9.30;99.90;;;;;;5051739;28;20140;-79
2021/11/03 10:43:00;;;;;;;9.20;3.42;;;9.30;99.90;;;;;;5031227;28;20129;-81
2021/11/03 10:45:33;;;;;;;5.38;3.30;;;9.40;99.90;;;;;;5031473;28;20515;-81
2021/11/03 10:48:22;;;;;;;5.78;3.10;;;9.40;99.90;;;;;;5031517;28;20049;-80
2021/11/03 10:51:19;;;;;;;5.38;3.22;;;9.40;99.90;;;;;;5033253;28;20053;-80
2021/11/03 10:53:53;;;;;;;7.10;3.08;;;9.50;99.90;;;;;;5032858;28;20136;-80
2021/11/03 10:56:28;;;;;;;5.28;3.08;;;9.50;99.90;;;;;;5045326;28;20052;-80
2021/11/03 10:59:02;;;;;;;;;;;9.40;99.90;;;;;;5065751;28;20053;-81
2021/11/03 11:01:38;;;;;;;5.18;2.80;;;9.40;99.90;;;;;;5064449;28;19920;-82
2021/11/03 11:04:11;;;;;;;7.60;3.70;;;9.50;99.90;;;;;;5065312;28;20053;-80
2021/11/03 11:06:42;;;;;;;7.68;3.03;;;9.50;99.90;;;;;;5053913;28;20080;-79
2021/11/03 11:09:24;;;;;;;5.43;3.10;;;9.50;99.90;;;;;;5052074;28;20053;-79
2021/11/03 11:11:59;;;;;;;5.10;3.00;;;9.50;99.90;;;;;;5052257;28;20068;-79
2021/11/03 11:14:30;;;;;;;5.78;2.97;;;9.50;99.90;;;;;;5052066;28;20045;-80
2021/11/03 11:17:05;;;;;;;5.80;3.00;;;9.50;99.90;;;;;;5051866;28;20133;-79
2021/11/03 11:20:04;;;;;;;6.90;3.10;;;9.50;99.90;;;;;;5051979;28;20477;-78
2021/11/03 11:22:51;;;;;;;6.55;3.03;;;9.50;99.90;;;;;;5051670;28;20087;-80
2021/11/03 11:25:25;;;;;;;4.95;2.75;;;9.50;99.90;;;;;;5051411;28;20232;-81
2021/11/03 11:28:18;;;;;;;5.60;2.58;;;9.50;99.90;;;;;;5051890;28;20376;-79
2021/11/03 11:30:54;;;;;;;5.88;3.03;;;9.50;99.90;;;;;;5050532;28;20053;-80
2021/11/03 11:33:28;;;;;;;6.38;3.30;;;9.40;99.90;;;;;;5050720;28;20082;-79
2021/11/03 11:36:20;;;;;;;5.07;3.08;;;9.50;99.90;;;;;;5050698;28;20088;-79
2021/11/03 11:39:12;;;;;;;7.50;3.22;;;9.50;99.90;;;;;;5049738;28;20526;-80
2021/11/03 11:42:01;;;;;;;4.38;2.90;;;9.50;99.90;;;;;;5051112;28;20198;-81
2021/11/03 11:44:31;;;;;;;4.72;2.80;;;9.50;99.90;;;;;;5051023;28;20084;-80
2021/11/03 11:47:03;;;;;;;5.07;2.70;;;9.60;99.90;;;;;;5048064;28;20139;-81
2021/11/03 11:49:35;;;;;;;4.75;2.80;;;9.60;99.90;;;;;;5051375;28;20057;-83
2021/11/03 11:52:13;;;;;;;5.35;2.70;;;9.60;99.90;;;;;;5053402;28;20072;-80
2021/11/03 11:55:02;;;;;;;4.53;2.40;;;9.60;99.90;;;;;;5051263;28;20132;-78
2021/11/03 11:57:31;;;;;;;5.75;2.47;;;9.70;99.90;;;;;;5051512;28;20091;-81
2021/11/03 12:00:22;;;;;;;4.95;2.40;;;9.70;99.90;;;;;;5051114;28;20143;-80
2021/11/03 12:03:18;;;;;;;4.72;2.25;;;9.80;99.90;;;;;;5050446;28;20052;-80
2021/11/03 12:06:00;;;;;;;4.47;2.25;;;9.80;99.90;;;;;;5051372;28;20052;-79
2021/11/03 12:08:34;;;;;;;4.55;2.22;;;9.90;99.90;;;;;;5051152;28;20139;-81
2021/11/03 12:11:25;;;;;;;4.03;2.20;;;9.90;99.90;;;;;;5051056;28;20136;-82
2021/11/03 12:14:24;;;;;;;4.75;2.08;;;10.00;99.90;;;;;;5047527;28;20456;-81
2021/11/03 12:17:15;;;;;;;4.20;1.90;;;10.00;99.90;;;;;;5050853;28;20048;-79
2021/11/03 12:20:00;;;;;;;5.47;2.25;;;10.10;99.90;;;;;;5050211;28;20591;-79
2021/11/03 12:22:53;;;;;;;4.53;2.17;;;10.20;99.90;;;;;;5051119;28;20132;-76
2021/11/03 12:25:44;;;;;;;4.80;2.17;;;10.20;99.90;;;;;;5051592;28;20103;-81
2021/11/03 12:28:54;;;;;;;5.13;2.75;;;10.20;99.90;;;;;;5051341;28;20057;-79
2021/11/03 12:31:28;;;;;;;4.72;2.40;;;10.20;99.90;;;;;;5063661;28;20045;-81
2021/11/03 12:34:33;;;;;;;4.55;2.38;;;10.30;99.90;;;;;;5062545;28;20443;-81
2021/11/03 12:37:29;;;;;;;5.03;2.38;;;10.30;99.90;;;;;;5039637;28;20436;-82
2021/11/03 12:40:31;;;;;;;3.85;2.10;;;10.30;99.90;;;;;;5032001;28;20053;-82
2021/11/03 12:43:17;;;;;;;6.60;3.85;;;10.30;99.90;;;;;;5073267;28;20410;-78
2021/11/03 12:45:56;;;;;;;5.40;3.10;;;10.30;99.90;;;;;;5050243;28;20128;-75
2021/11/03 12:48:29;;;;;;;8.07;3.78;;;10.30;99.90;;;;;;5047138;28;20048;-80
2021/11/03 12:50:56;;;;;;;4.18;2.40;;;10.40;99.90;;;;;;5045318;28;20124;-79
2021/11/03 12:53:27;;;;;;;4.72;2.20;;;10.40;99.90;;;;;;5046244;28;20056;-82
2021/11/03 12:55:59;;;;;;;4.05;2.35;;;10.40;99.90;;;;;;5031061;28;20048;-80
2021/11/03 12:58:38;;;;;;;4.40;2.38;;;10.50;99.90;;;;;;5038756;28;20585;-81
2021/11/03 13:01:23;;;;;;;4.20;2.20;;;10.50;99.90;;;;;;5046259;28;20156;-79
2021/11/03 13:04:02;;;;;;;;;;;10.40;99.90;;;;;;5052027;28;20136;-80
2021/11/03 13:06:35;;;;;;;4.70;2.35;;;10.30;99.90;;;;;;5051831;28;19925;-80
2021/11/03 13:09:04;;;;;;;4.15;2.20;;;10.30;99.90;;;;;;5067169;28;20498;-84
2021/11/03 13:11:36;;;;;;;3.83;2.15;;;10.20;99.90;;;;;;5050820;28;20525;-81
2021/11/03 13:14:16;;;;;;;4.15;2.30;;;10.10;99.90;;;;;;5050101;28;20053;-80
2021/11/03 13:16:48;;;;;;;5.35;2.50;;;10.10;99.90;;;;;;5048773;28;20048;-79
2021/11/03 13:19:23;;;;;;;4.57;2.40;;;10.20;99.90;;;;;;5049666;28;20140;-82
2021/11/03 13:21:50;;;;;;;;;;;10.10;99.90;;;;;;5050844;28;20081;-80